sensor_id;sensor_type;location;lat;lon;timestamp;P1;durP1;ratioP1;P2;durP2;ratioP2
18649;SDS011;9454;53.516;10.478;2022-12-07T00:02:22;10.65;;;5.25;;
18649;SDS011;9454;53.516;10.478;2022-12-07T00:05:25;10.57;;;4.90;;
18649;SDS011;9454;53.516;10.478;2022-12-07T00:08:28;8.65;;;4.15;;
18649;SDS011;9454;53.516;10.478;2022-12-07T00:11:31;13.35;;;5.45;;
18649;SDS011;9454;53.516;10.478;2022-12-07T00:14:35;12.07;;;4.72;;
18649;SDS011;9454;53.516;10.478;2022-12-07T00:17:38;11.98;;;4.68;;
18649;SDS011;9454;53.516;10.478;2022-12-07T00:20:41;10.05;;;4.90;;
18649;SDS011;9454;53.516;10.478;2022-12-07T00:23:44;10.68;;;5.10;;
18649;SDS011;9454;53.516;10.478;2022-12-07T00:26:47;10.48;;;5.38;;
18649;SDS011;9454;53.516;10.478;2022-12-07T00:29:51;11.23;;;5.68;;
18649;SDS011;9454;53.516;10.478;2022-12-07T00:32:55;10.40;;;5.50;;
18649;SDS011;9454;53.516;10.478;2022-12-07T00:35:58;10.75;;;5.18;;
18649;SDS011;9454;53.516;10.478;2022-12-07T00:39:01;10.35;;;5.30;;
18649;SDS011;9454;53.516;10.478;2022-12-07T00:42:03;10.52;;;5.20;;
18649;SDS011;9454;53.516;10.478;2022-12-07T00:45:08;10.73;;;5.25;;
18649;SDS011;9454;53.516;10.478;2022-12-07T00:48:11;10.10;;;4.78;;
18649;SDS011;9454;53.516;10.478;2022-12-07T00:51:14;9.90;;;5.28;;
18649;SDS011;9454;53.516;10.478;2022-12-07T00:54:17;11.23;;;4.82;;
18649;SDS011;9454;53.516;10.478;2022-12-07T00:57:20;7.65;;;4.90;;
18649;SDS011;9454;53.516;10.478;2022-12-07T01:00:23;10.10;;;5.05;;
18649;SDS011;9454;53.516;10.478;2022-12-07T01:03:26;10.60;;;4.65;;
18649;SDS011;9454;53.516;10.478;2022-12-07T01:06:29;9.80;;;4.82;;
18649;SDS011;9454;53.516;10.478;2022-12-07T01:09:32;16.65;;;4.95;;
18649;SDS011;9454;53.516;10.478;2022-12-07T01:12:34;14.75;;;5.65;;
18649;SDS011;9454;53.516;10.478;2022-12-07T01:15:40;11.18;;;5.45;;
18649;SDS011;9454;53.516;10.478;2022-12-07T01:18:45;10.15;;;5.82;;
18649;SDS011;9454;53.516;10.478;2022-12-07T01:21:48;8.13;;;5.10;;
18649;SDS011;9454;53.516;10.478;2022-12-07T01:24:50;9.07;;;5.18;;
18649;SDS011;9454;53.516;10.478;2022-12-07T01:27:53;10.75;;;5.38;;
18649;SDS011;9454;53.516;10.478;2022-12-07T01:30:58;9.02;;;5.32;;
18649;SDS011;9454;53.516;10.478;2022-12-07T01:34:01;10.13;;;5.30;;
18649;SDS011;9454;53.516;10.478;2022-12-07T01:37:03;8.07;;;4.47;;
18649;SDS011;9454;53.516;10.478;2022-12-07T01:40:07;8.30;;;4.47;;
18649;SDS011;9454;53.516;10.478;2022-12-07T01:43:13;7.82;;;4.43;;
18649;SDS011;9454;53.516;10.478;2022-12-07T01:46:18;8.82;;;4.78;;
18649;SDS011;9454;53.516;10.478;2022-12-07T01:49:22;9.02;;;4.70;;
18649;SDS011;9454;53.516;10.478;2022-12-07T01:52:25;7.90;;;4.28;;
18649;SDS011;9454;53.516;10.478;2022-12-07T01:55:30;9.75;;;4.38;;
18649;SDS011;9454;53.516;10.478;2022-12-07T01:58:32;7.25;;;3.85;;
18649;SDS011;9454;53.516;10.478;2022-12-07T02:01:37;13.55;;;4.15;;
18649;SDS011;9454;53.516;10.478;2022-12-07T02:04:39;8.77;;;4.55;;
18649;SDS011;9454;53.516;10.478;2022-12-07T02:07:42;6.72;;;4.07;;
18649;SDS011;9454;53.516;10.478;2022-12-07T02:10:45;7.80;;;4.00;;
18649;SDS011;9454;53.516;10.478;2022-12-07T02:13:48;10.30;;;4.28;;
18649;SDS011;9454;53.516;10.478;2022-12-07T02:16:58;7.72;;;4.38;;
18649;SDS011;9454;53.516;10.478;2022-12-07T02:20:14;6.47;;;3.70;;
18649;SDS011;9454;53.516;10.478;2022-12-07T02:23:27;6.10;;;3.58;;
18649;SDS011;9454;53.516;10.478;2022-12-07T02:26:44;9.77;;;3.53;;
18649;SDS011;9454;53.516;10.478;2022-12-07T02:29:53;8.00;;;3.97;;
18649;SDS011;9454;53.516;10.478;2022-12-07T02:33:00;8.20;;;3.80;;
18649;SDS011;9454;53.516;10.478;2022-12-07T02:36:06;8.77;;;3.47;;
18649;SDS011;9454;53.516;10.478;2022-12-07T02:39:11;5.53;;;3.03;;
18649;SDS011;9454;53.516;10.478;2022-12-07T02:42:17;8.70;;;3.55;;
18649;SDS011;9454;53.516;10.478;2022-12-07T02:45:23;7.95;;;2.88;;
18649;SDS011;9454;53.516;10.478;2022-12-07T02:48:28;6.60;;;3.47;;
18649;SDS011;9454;53.516;10.478;2022-12-07T02:51:31;6.10;;;2.95;;
18649;SDS011;9454;53.516;10.478;2022-12-07T02:54:33;6.10;;;3.10;;
18649;SDS011;9454;53.516;10.478;2022-12-07T02:57:41;7.72;;;3.30;;
18649;SDS011;9454;53.516;10.478;2022-12-07T03:00:48;5.30;;;3.55;;
18649;SDS011;9454;53.516;10.478;2022-12-07T03:03:56;3.63;;;2.65;;
18649;SDS011;9454;53.516;10.478;2022-12-07T03:07:02;5.30;;;3.00;;
18649;SDS011;9454;53.516;10.478;2022-12-07T03:10:07;5.57;;;2.67;;
18649;SDS011;9454;53.516;10.478;2022-12-07T03:13:12;4.40;;;2.58;;
18649;SDS011;9454;53.516;10.478;2022-12-07T03:16:17;4.53;;;2.78;;
18649;SDS011;9454;53.516;10.478;2022-12-07T03:19:20;4.60;;;2.13;;
18649;SDS011;9454;53.516;10.478;2022-12-07T03:22:24;4.63;;;2.30;;
18649;SDS011;9454;53.516;10.478;2022-12-07T03:25:30;5.60;;;2.17;;
18649;SDS011;9454;53.516;10.478;2022-12-07T03:28:33;4.03;;;2.20;;
18649;SDS011;9454;53.516;10.478;2022-12-07T03:31:39;5.10;;;2.17;;
18649;SDS011;9454;53.516;10.478;2022-12-07T03:34:44;3.25;;;1.70;;
18649;SDS011;9454;53.516;10.478;2022-12-07T03:37:49;5.20;;;1.60;;
18649;SDS011;9454;53.516;10.478;2022-12-07T03:40:54;3.65;;;1.73;;
18649;SDS011;9454;53.516;10.478;2022-12-07T03:44:00;3.88;;;1.50;;
18649;SDS011;9454;53.516;10.478;2022-12-07T03:47:05;1.20;;;1.00;;
18649;SDS011;9454;53.516;10.478;2022-12-07T03:50:09;4.60;;;1.60;;
18649;SDS011;9454;53.516;10.478;2022-12-07T03:53:14;2.35;;;1.60;;
18649;SDS011;9454;53.516;10.478;2022-12-07T03:56:17;3.15;;;1.42;;
18649;SDS011;9454;53.516;10.478;2022-12-07T03:59:20;3.75;;;1.17;;
18649;SDS011;9454;53.516;10.478;2022-12-07T04:02:25;1.73;;;1.08;;
18649;SDS011;9454;53.516;10.478;2022-12-07T04:05:29;4.78;;;1.30;;
18649;SDS011;9454;53.516;10.478;2022-12-07T04:08:32;1.45;;;1.10;;
18649;SDS011;9454;53.516;10.478;2022-12-07T04:11:34;1.15;;;1.05;;
18649;SDS011;9454;53.516;10.478;2022-12-07T04:14:37;2.60;;;0.98;;
18649;SDS011;9454;53.516;10.478;2022-12-07T04:17:41;1.02;;;0.95;;
18649;SDS011;9454;53.516;10.478;2022-12-07T04:20:43;2.08;;;1.20;;
18649;SDS011;9454;53.516;10.478;2022-12-07T04:23:46;1.25;;;0.93;;
18649;SDS011;9454;53.516;10.478;2022-12-07T04:26:49;3.45;;;1.30;;
18649;SDS011;9454;53.516;10.478;2022-12-07T04:29:52;4.88;;;1.13;;
18649;SDS011;9454;53.516;10.478;2022-12-07T04:32:58;3.30;;;1.05;;
18649;SDS011;9454;53.516;10.478;2022-12-07T04:36:00;2.90;;;1.08;;
18649;SDS011;9454;53.516;10.478;2022-12-07T04:39:03;1.55;;;0.90;;
18649;SDS011;9454;53.516;10.478;2022-12-07T04:42:06;1.63;;;1.00;;
18649;SDS011;9454;53.516;10.478;2022-12-07T04:45:09;4.78;;;1.08;;
18649;SDS011;9454;53.516;10.478;2022-12-07T04:48:13;0.95;;;0.90;;
18649;SDS011;9454;53.516;10.478;2022-12-07T04:51:18;1.95;;;0.77;;
18649;SDS011;9454;53.516;10.478;2022-12-07T04:54:21;2.10;;;0.88;;
18649;SDS011;9454;53.516;10.478;2022-12-07T04:57:23;3.35;;;1.00;;
18649;SDS011;9454;53.516;10.478;2022-12-07T05:00:26;1.25;;;1.00;;
18649;SDS011;9454;53.516;10.478;2022-12-07T05:03:30;4.13;;;0.93;;
18649;SDS011;9454;53.516;10.478;2022-12-07T05:06:32;3.67;;;0.90;;
18649;SDS011;9454;53.516;10.478;2022-12-07T05:09:35;2.22;;;0.98;;
18649;SDS011;9454;53.516;10.478;2022-12-07T05:12:38;3.20;;;0.95;;
18649;SDS011;9454;53.516;10.478;2022-12-07T05:15:41;2.05;;;1.10;;
18649;SDS011;9454;53.516;10.478;2022-12-07T05:18:46;3.53;;;0.90;;
18649;SDS011;9454;53.516;10.478;2022-12-07T05:21:48;1.13;;;1.00;;
18649;SDS011;9454;53.516;10.478;2022-12-07T05:24:51;1.38;;;1.02;;
18649;SDS011;9454;53.516;10.478;2022-12-07T05:27:54;1.95;;;0.82;;
18649;SDS011;9454;53.516;10.478;2022-12-07T05:30:57;1.02;;;0.75;;
18649;SDS011;9454;53.516;10.478;2022-12-07T05:34:01;1.52;;;0.85;;
18649;SDS011;9454;53.516;10.478;2022-12-07T05:37:04;1.38;;;1.05;;
18649;SDS011;9454;53.516;10.478;2022-12-07T05:40:07;4.30;;;0.90;;
18649;SDS011;9454;53.516;10.478;2022-12-07T05:43:10;4.30;;;1.17;;
18649;SDS011;9454;53.516;10.478;2022-12-07T05:46:13;1.27;;;1.00;;
18649;SDS011;9454;53.516;10.478;2022-12-07T05:49:17;2.00;;;1.10;;
18649;SDS011;9454;53.516;10.478;2022-12-07T05:52:20;2.60;;;1.10;;
18649;SDS011;9454;53.516;10.478;2022-12-07T05:55:22;2.15;;;0.95;;
18649;SDS011;9454;53.516;10.478;2022-12-07T05:58:25;4.50;;;1.13;;
18649;SDS011;9454;53.516;10.478;2022-12-07T06:01:45;2.88;;;0.98;;
18649;SDS011;9454;53.516;10.478;2022-12-07T06:04:49;2.90;;;0.85;;
18649;SDS011;9454;53.516;10.478;2022-12-07T06:07:52;3.65;;;1.10;;
18649;SDS011;9454;53.516;10.478;2022-12-07T06:10:55;2.53;;;0.85;;
18649;SDS011;9454;53.516;10.478;2022-12-07T06:14:11;1.10;;;0.85;;
18649;SDS011;9454;53.516;10.478;2022-12-07T06:17:14;2.38;;;1.45;;
18649;SDS011;9454;53.516;10.478;2022-12-07T06:20:18;3.20;;;0.98;;
18649;SDS011;9454;53.516;10.478;2022-12-07T06:23:21;5.53;;;1.15;;
18649;SDS011;9454;53.516;10.478;2022-12-07T06:26:24;3.45;;;1.35;;
18649;SDS011;9454;53.516;10.478;2022-12-07T06:29:27;2.58;;;1.20;;
18649;SDS011;9454;53.516;10.478;2022-12-07T06:32:29;1.27;;;0.93;;
18649;SDS011;9454;53.516;10.478;2022-12-07T06:35:34;1.48;;;1.20;;
18649;SDS011;9454;53.516;10.478;2022-12-07T06:38:36;2.10;;;1.20;;
18649;SDS011;9454;53.516;10.478;2022-12-07T06:41:53;2.08;;;1.42;;
18649;SDS011;9454;53.516;10.478;2022-12-07T06:44:56;2.55;;;1.38;;
18649;SDS011;9454;53.516;10.478;2022-12-07T06:47:59;8.63;;;1.30;;
18649;SDS011;9454;53.516;10.478;2022-12-07T06:51:03;1.88;;;1.23;;
18649;SDS011;9454;53.516;10.478;2022-12-07T06:54:06;1.27;;;1.08;;
18649;SDS011;9454;53.516;10.478;2022-12-07T06:57:10;3.58;;;1.63;;
18649;SDS011;9454;53.516;10.478;2022-12-07T07:00:13;3.25;;;1.33;;
18649;SDS011;9454;53.516;10.478;2022-12-07T07:03:22;2.22;;;1.52;;
18649;SDS011;9454;53.516;10.478;2022-12-07T07:06:27;3.58;;;1.38;;
18649;SDS011;9454;53.516;10.478;2022-12-07T07:09:30;6.32;;;1.90;;
18649;SDS011;9454;53.516;10.478;2022-12-07T07:12:33;1.50;;;1.30;;
18649;SDS011;9454;53.516;10.478;2022-12-07T07:15:36;1.83;;;1.35;;
18649;SDS011;9454;53.516;10.478;2022-12-07T07:18:39;2.88;;;1.30;;
18649;SDS011;9454;53.516;10.478;2022-12-07T07:21:45;2.58;;;1.45;;
18649;SDS011;9454;53.516;10.478;2022-12-07T07:24:53;2.85;;;1.30;;
18649;SDS011;9454;53.516;10.478;2022-12-07T07:27:56;3.95;;;1.38;;
18649;SDS011;9454;53.516;10.478;2022-12-07T07:31:05;3.72;;;1.35;;
18649;SDS011;9454;53.516;10.478;2022-12-07T07:34:08;2.85;;;1.38;;
18649;SDS011;9454;53.516;10.478;2022-12-07T07:37:14;4.47;;;1.25;;
18649;SDS011;9454;53.516;10.478;2022-12-07T07:40:22;5.47;;;1.65;;
18649;SDS011;9454;53.516;10.478;2022-12-07T07:43:28;4.85;;;1.23;;
18649;SDS011;9454;53.516;10.478;2022-12-07T07:46:31;3.72;;;1.05;;
18649;SDS011;9454;53.516;10.478;2022-12-07T07:49:35;9.50;;;1.30;;
18649;SDS011;9454;53.516;10.478;2022-12-07T07:52:39;2.85;;;1.08;;
18649;SDS011;9454;53.516;10.478;2022-12-07T07:55:49;1.95;;;1.35;;
18649;SDS011;9454;53.516;10.478;2022-12-07T07:58:56;3.25;;;1.52;;
18649;SDS011;9454;53.516;10.478;2022-12-07T08:01:59;1.60;;;1.13;;
18649;SDS011;9454;53.516;10.478;2022-12-07T08:05:02;3.25;;;1.20;;
18649;SDS011;9454;53.516;10.478;2022-12-07T08:08:12;2.85;;;1.25;;
18649;SDS011;9454;53.516;10.478;2022-12-07T08:11:15;4.30;;;1.20;;
18649;SDS011;9454;53.516;10.478;2022-12-07T08:14:18;1.38;;;1.08;;
18649;SDS011;9454;53.516;10.478;2022-12-07T08:17:24;2.00;;;1.10;;
18649;SDS011;9454;53.516;10.478;2022-12-07T08:20:29;3.83;;;1.10;;
18649;SDS011;9454;53.516;10.478;2022-12-07T08:23:35;2.15;;;0.93;;
18649;SDS011;9454;53.516;10.478;2022-12-07T08:26:40;2.13;;;1.50;;
18649;SDS011;9454;53.516;10.478;2022-12-07T08:29:46;1.42;;;0.90;;
18649;SDS011;9454;53.516;10.478;2022-12-07T08:32:52;5.65;;;1.00;;
18649;SDS011;9454;53.516;10.478;2022-12-07T08:36:00;1.27;;;0.80;;
18649;SDS011;9454;53.516;10.478;2022-12-07T08:39:07;2.00;;;0.90;;
18649;SDS011;9454;53.516;10.478;2022-12-07T08:42:30;1.52;;;0.85;;
18649;SDS011;9454;53.516;10.478;2022-12-07T08:45:39;1.77;;;0.98;;
18649;SDS011;9454;53.516;10.478;2022-12-07T08:48:43;4.38;;;1.08;;
18649;SDS011;9454;53.516;10.478;2022-12-07T08:51:47;4.38;;;0.88;;
18649;SDS011;9454;53.516;10.478;2022-12-07T08:54:51;1.10;;;0.88;;
18649;SDS011;9454;53.516;10.478;2022-12-07T08:57:54;0.93;;;0.82;;
18649;SDS011;9454;53.516;10.478;2022-12-07T09:00:57;1.85;;;0.75;;
18649;SDS011;9454;53.516;10.478;2022-12-07T09:04:00;1.50;;;0.70;;
18649;SDS011;9454;53.516;10.478;2022-12-07T09:07:03;1.50;;;0.80;;
18649;SDS011;9454;53.516;10.478;2022-12-07T09:10:08;1.50;;;0.90;;
18649;SDS011;9454;53.516;10.478;2022-12-07T09:13:11;3.30;;;0.65;;
18649;SDS011;9454;53.516;10.478;2022-12-07T09:16:13;4.07;;;0.95;;
18649;SDS011;9454;53.516;10.478;2022-12-07T09:19:16;2.65;;;1.00;;
18649;SDS011;9454;53.516;10.478;2022-12-07T09:22:22;3.00;;;1.10;;
18649;SDS011;9454;53.516;10.478;2022-12-07T09:25:27;3.85;;;0.95;;
18649;SDS011;9454;53.516;10.478;2022-12-07T09:28:30;5.45;;;1.17;;
18649;SDS011;9454;53.516;10.478;2022-12-07T09:31:35;4.75;;;0.82;;
18649;SDS011;9454;53.516;10.478;2022-12-07T09:34:38;1.80;;;0.68;;
18649;SDS011;9454;53.516;10.478;2022-12-07T09:37:41;5.25;;;0.77;;
18649;SDS011;9454;53.516;10.478;2022-12-07T09:40:45;5.18;;;0.60;;
18649;SDS011;9454;53.516;10.478;2022-12-07T09:43:48;6.32;;;1.23;;
18649;SDS011;9454;53.516;10.478;2022-12-07T09:46:51;2.00;;;0.90;;
18649;SDS011;9454;53.516;10.478;2022-12-07T09:49:55;4.75;;;0.98;;
18649;SDS011;9454;53.516;10.478;2022-12-07T09:53:04;4.43;;;0.98;;
18649;SDS011;9454;53.516;10.478;2022-12-07T09:56:09;3.22;;;1.48;;
18649;SDS011;9454;53.516;10.478;2022-12-07T09:59:16;1.42;;;0.90;;
18649;SDS011;9454;53.516;10.478;2022-12-07T10:02:23;3.30;;;1.10;;
18649;SDS011;9454;53.516;10.478;2022-12-07T10:05:27;3.95;;;0.80;;
18649;SDS011;9454;53.516;10.478;2022-12-07T10:08:31;5.97;;;0.90;;
18649;SDS011;9454;53.516;10.478;2022-12-07T10:11:35;2.42;;;0.88;;
18649;SDS011;9454;53.516;10.478;2022-12-07T10:14:59;1.77;;;0.68;;
18649;SDS011;9454;53.516;10.478;2022-12-07T10:18:21;0.85;;;0.50;;
18649;SDS011;9454;53.516;10.478;2022-12-07T10:21:27;5.57;;;1.35;;
18649;SDS011;9454;53.516;10.478;2022-12-07T10:24:30;3.90;;;0.90;;
18649;SDS011;9454;53.516;10.478;2022-12-07T10:27:35;4.70;;;0.85;;
18649;SDS011;9454;53.516;10.478;2022-12-07T10:30:48;1.67;;;0.77;;
18649;SDS011;9454;53.516;10.478;2022-12-07T10:33:52;1.45;;;1.05;;
18649;SDS011;9454;53.516;10.478;2022-12-07T10:37:07;1.90;;;0.90;;
18649;SDS011;9454;53.516;10.478;2022-12-07T10:40:26;1.92;;;0.98;;
18649;SDS011;9454;53.516;10.478;2022-12-07T10:43:30;2.92;;;0.77;;
18649;SDS011;9454;53.516;10.478;2022-12-07T10:46:43;5.85;;;1.00;;
18649;SDS011;9454;53.516;10.478;2022-12-07T10:49:53;4.28;;;1.02;;
18649;SDS011;9454;53.516;10.478;2022-12-07T10:53:00;4.72;;;0.90;;
18649;SDS011;9454;53.516;10.478;2022-12-07T10:56:12;6.05;;;1.05;;
18649;SDS011;9454;53.516;10.478;2022-12-07T10:59:27;5.07;;;1.17;;
18649;SDS011;9454;53.516;10.478;2022-12-07T11:02:43;2.10;;;0.88;;
18649;SDS011;9454;53.516;10.478;2022-12-07T11:05:52;4.10;;;1.30;;
18649;SDS011;9454;53.516;10.478;2022-12-07T11:09:03;1.55;;;0.95;;
18649;SDS011;9454;53.516;10.478;2022-12-07T11:12:08;2.60;;;0.68;;
18649;SDS011;9454;53.516;10.478;2022-12-07T11:15:16;7.78;;;1.15;;
18649;SDS011;9454;53.516;10.478;2022-12-07T11:18:21;5.43;;;1.20;;
18649;SDS011;9454;53.516;10.478;2022-12-07T11:21:27;10.50;;;1.10;;
18649;SDS011;9454;53.516;10.478;2022-12-07T11:24:33;4.85;;;1.30;;
18649;SDS011;9454;53.516;10.478;2022-12-07T11:27:41;7.03;;;0.80;;
18649;SDS011;9454;53.516;10.478;2022-12-07T11:30:49;5.85;;;1.10;;
18649;SDS011;9454;53.516;10.478;2022-12-07T11:33:57;2.25;;;0.77;;
18649;SDS011;9454;53.516;10.478;2022-12-07T11:37:03;3.38;;;0.90;;
18649;SDS011;9454;53.516;10.478;2022-12-07T11:40:15;3.67;;;0.98;;
18649;SDS011;9454;53.516;10.478;2022-12-07T11:43:21;7.78;;;1.00;;
18649;SDS011;9454;53.516;10.478;2022-12-07T11:46:27;2.53;;;0.70;;
18649;SDS011;9454;53.516;10.478;2022-12-07T11:49:37;5.18;;;1.20;;
18649;SDS011;9454;53.516;10.478;2022-12-07T11:52:43;1.33;;;0.60;;
18649;SDS011;9454;53.516;10.478;2022-12-07T11:55:48;2.85;;;0.77;;
18649;SDS011;9454;53.516;10.478;2022-12-07T11:58:53;3.05;;;0.85;;
18649;SDS011;9454;53.516;10.478;2022-12-07T12:02:00;3.38;;;1.05;;
18649;SDS011;9454;53.516;10.478;2022-12-07T12:05:12;4.70;;;0.68;;
18649;SDS011;9454;53.516;10.478;2022-12-07T12:08:16;4.63;;;0.70;;
18649;SDS011;9454;53.516;10.478;2022-12-07T12:11:48;2.65;;;0.63;;
18649;SDS011;9454;53.516;10.478;2022-12-07T12:15:18;6.85;;;1.00;;
18649;SDS011;9454;53.516;10.478;2022-12-07T12:18:37;8.90;;;1.00;;
18649;SDS011;9454;53.516;10.478;2022-12-07T12:21:42;1.42;;;0.90;;
18649;SDS011;9454;53.516;10.478;2022-12-07T12:24:48;2.25;;;0.80;;
18649;SDS011;9454;53.516;10.478;2022-12-07T12:27:53;7.75;;;0.70;;
18649;SDS011;9454;53.516;10.478;2022-12-07T12:34:33;5.57;;;0.82;;
18649;SDS011;9454;53.516;10.478;2022-12-07T12:37:39;2.42;;;0.47;;
18649;SDS011;9454;53.516;10.478;2022-12-07T12:40:43;2.92;;;0.80;;
18649;SDS011;9454;53.516;10.478;2022-12-07T12:44:02;5.00;;;0.95;;
18649;SDS011;9454;53.516;10.478;2022-12-07T12:50:28;1.23;;;0.65;;
18649;SDS011;9454;53.516;10.478;2022-12-07T12:53:38;2.20;;;0.98;;
18649;SDS011;9454;53.516;10.478;2022-12-07T12:59:58;2.72;;;0.60;;
18649;SDS011;9454;53.516;10.478;2022-12-07T13:10:07;2.70;;;1.05;;
18649;SDS011;9454;53.516;10.478;2022-12-07T13:16:55;3.40;;;0.80;;
18649;SDS011;9454;53.516;10.478;2022-12-07T13:20:01;3.22;;;0.63;;
18649;SDS011;9454;53.516;10.478;2022-12-07T13:23:05;1.23;;;0.60;;
18649;SDS011;9454;53.516;10.478;2022-12-07T13:26:14;8.00;;;0.82;;
18649;SDS011;9454;53.516;10.478;2022-12-07T13:29:22;1.23;;;0.40;;
18649;SDS011;9454;53.516;10.478;2022-12-07T13:32:26;4.22;;;1.40;;
18649;SDS011;9454;53.516;10.478;2022-12-07T13:35:38;1.63;;;0.50;;
18649;SDS011;9454;53.516;10.478;2022-12-07T13:38:47;4.65;;;0.60;;
18649;SDS011;9454;53.516;10.478;2022-12-07T13:41:54;2.92;;;0.63;;
18649;SDS011;9454;53.516;10.478;2022-12-07T13:44:58;2.45;;;0.70;;
18649;SDS011;9454;53.516;10.478;2022-12-07T13:48:02;1.85;;;0.70;;
18649;SDS011;9454;53.516;10.478;2022-12-07T13:51:15;6.53;;;0.80;;
18649;SDS011;9454;53.516;10.478;2022-12-07T13:54:22;7.90;;;1.20;;
18649;SDS011;9454;53.516;10.478;2022-12-07T13:57:26;1.02;;;0.70;;
18649;SDS011;9454;53.516;10.478;2022-12-07T14:00:29;5.88;;;0.68;;
18649;SDS011;9454;53.516;10.478;2022-12-07T14:03:33;2.63;;;0.55;;
18649;SDS011;9454;53.516;10.478;2022-12-07T14:06:49;1.55;;;0.60;;
18649;SDS011;9454;53.516;10.478;2022-12-07T14:09:53;0.40;;;0.40;;
18649;SDS011;9454;53.516;10.478;2022-12-07T14:13:00;0.90;;;0.68;;
18649;SDS011;9454;53.516;10.478;2022-12-07T14:16:17;0.90;;;0.45;;
18649;SDS011;9454;53.516;10.478;2022-12-07T14:22:53;0.68;;;0.68;;
18649;SDS011;9454;53.516;10.478;2022-12-07T14:26:05;9.13;;;0.90;;
18649;SDS011;9454;53.516;10.478;2022-12-07T14:29:34;2.42;;;0.57;;
18649;SDS011;9454;53.516;10.478;2022-12-07T14:32:39;4.30;;;0.50;;
18649;SDS011;9454;53.516;10.478;2022-12-07T14:35:44;6.97;;;0.50;;
18649;SDS011;9454;53.516;10.478;2022-12-07T14:38:46;3.97;;;0.90;;
18649;SDS011;9454;53.516;10.478;2022-12-07T14:41:49;0.30;;;0.30;;
18649;SDS011;9454;53.516;10.478;2022-12-07T14:44:58;1.13;;;0.60;;
18649;SDS011;9454;53.516;10.478;2022-12-07T14:48:04;2.20;;;0.40;;
18649;SDS011;9454;53.516;10.478;2022-12-07T14:51:26;0.30;;;0.30;;
18649;SDS011;9454;53.516;10.478;2022-12-07T14:54:54;2.92;;;0.65;;
18649;SDS011;9454;53.516;10.478;2022-12-07T14:57:57;1.10;;;0.43;;
18649;SDS011;9454;53.516;10.478;2022-12-07T15:01:02;2.83;;;0.90;;
18649;SDS011;9454;53.516;10.478;2022-12-07T15:04:30;3.97;;;0.80;;
18649;SDS011;9454;53.516;10.478;2022-12-07T15:07:40;1.00;;;0.90;;
18649;SDS011;9454;53.516;10.478;2022-12-07T15:10:46;1.85;;;0.88;;
18649;SDS011;9454;53.516;10.478;2022-12-07T15:13:55;1.17;;;0.60;;
18649;SDS011;9454;53.516;10.478;2022-12-07T15:17:13;4.78;;;0.90;;
18649;SDS011;9454;53.516;10.478;2022-12-07T15:20:31;1.30;;;0.43;;
18649;SDS011;9454;53.516;10.478;2022-12-07T15:23:35;1.50;;;0.52;;
18649;SDS011;9454;53.516;10.478;2022-12-07T15:26:38;5.43;;;0.77;;
18649;SDS011;9454;53.516;10.478;2022-12-07T15:29:41;2.78;;;0.35;;
18649;SDS011;9454;53.516;10.478;2022-12-07T15:32:45;10.38;;;0.82;;
18649;SDS011;9454;53.516;10.478;2022-12-07T15:35:51;3.63;;;0.60;;
18649;SDS011;9454;53.516;10.478;2022-12-07T15:38:54;0.90;;;0.47;;
18649;SDS011;9454;53.516;10.478;2022-12-07T15:42:14;5.38;;;0.50;;
18649;SDS011;9454;53.516;10.478;2022-12-07T15:45:17;3.53;;;0.77;;
18649;SDS011;9454;53.516;10.478;2022-12-07T15:48:20;2.25;;;0.65;;
18649;SDS011;9454;53.516;10.478;2022-12-07T15:51:29;0.60;;;0.45;;
18649;SDS011;9454;53.516;10.478;2022-12-07T15:54:32;2.03;;;0.70;;
18649;SDS011;9454;53.516;10.478;2022-12-07T15:57:35;1.35;;;0.57;;
18649;SDS011;9454;53.516;10.478;2022-12-07T16:00:39;1.20;;;0.32;;
18649;SDS011;9454;53.516;10.478;2022-12-07T16:03:44;2.83;;;0.50;;
18649;SDS011;9454;53.516;10.478;2022-12-07T16:06:47;1.73;;;0.57;;
18649;SDS011;9454;53.516;10.478;2022-12-07T16:09:51;5.85;;;0.80;;
18649;SDS011;9454;53.516;10.478;2022-12-07T16:12:54;0.82;;;0.80;;
18649;SDS011;9454;53.516;10.478;2022-12-07T16:15:56;7.05;;;0.70;;
18649;SDS011;9454;53.516;10.478;2022-12-07T16:19:01;1.40;;;0.47;;
18649;SDS011;9454;53.516;10.478;2022-12-07T16:22:04;7.13;;;1.08;;
18649;SDS011;9454;53.516;10.478;2022-12-07T16:25:08;0.60;;;0.52;;
18649;SDS011;9454;53.516;10.478;2022-12-07T16:28:11;3.33;;;0.50;;
18649;SDS011;9454;53.516;10.478;2022-12-07T16:31:14;4.43;;;1.10;;
18649;SDS011;9454;53.516;10.478;2022-12-07T16:34:19;11.57;;;0.85;;
18649;SDS011;9454;53.516;10.478;2022-12-07T16:37:22;3.50;;;0.80;;
18649;SDS011;9454;53.516;10.478;2022-12-07T16:40:30;4.13;;;0.90;;
18649;SDS011;9454;53.516;10.478;2022-12-07T16:43:34;6.72;;;1.00;;
18649;SDS011;9454;53.516;10.478;2022-12-07T16:46:37;1.45;;;0.82;;
18649;SDS011;9454;53.516;10.478;2022-12-07T16:49:48;2.00;;;0.77;;
18649;SDS011;9454;53.516;10.478;2022-12-07T16:52:51;4.68;;;0.80;;
18649;SDS011;9454;53.516;10.478;2022-12-07T16:55:53;0.50;;;0.50;;
18649;SDS011;9454;53.516;10.478;2022-12-07T16:58:57;0.80;;;0.70;;
18649;SDS011;9454;53.516;10.478;2022-12-07T17:02:00;1.05;;;0.50;;
18649;SDS011;9454;53.516;10.478;2022-12-07T17:05:19;0.80;;;0.73;;
18649;SDS011;9454;53.516;10.478;2022-12-07T17:08:24;6.97;;;0.90;;
18649;SDS011;9454;53.516;10.478;2022-12-07T17:11:28;5.03;;;1.10;;
18649;SDS011;9454;53.516;10.478;2022-12-07T17:14:32;2.60;;;1.33;;
18649;SDS011;9454;53.516;10.478;2022-12-07T17:17:55;3.17;;;1.38;;
18649;SDS011;9454;53.516;10.478;2022-12-07T17:21:03;2.97;;;0.95;;
18649;SDS011;9454;53.516;10.478;2022-12-07T17:27:25;2.13;;;1.02;;
18649;SDS011;9454;53.516;10.478;2022-12-07T17:30:31;1.40;;;0.88;;
18649;SDS011;9454;53.516;10.478;2022-12-07T17:33:33;3.95;;;0.90;;
18649;SDS011;9454;53.516;10.478;2022-12-07T17:36:38;1.77;;;0.90;;
18649;SDS011;9454;53.516;10.478;2022-12-07T17:39:41;1.25;;;0.90;;
18649;SDS011;9454;53.516;10.478;2022-12-07T17:42:44;1.02;;;0.73;;
18649;SDS011;9454;53.516;10.478;2022-12-07T17:45:50;2.35;;;0.80;;
18649;SDS011;9454;53.516;10.478;2022-12-07T17:48:53;3.78;;;0.82;;
18649;SDS011;9454;53.516;10.478;2022-12-07T17:51:58;2.20;;;1.02;;
18649;SDS011;9454;53.516;10.478;2022-12-07T17:55:18;2.15;;;1.63;;
18649;SDS011;9454;53.516;10.478;2022-12-07T17:58:21;2.97;;;1.25;;
18649;SDS011;9454;53.516;10.478;2022-12-07T18:01:24;3.83;;;1.55;;
18649;SDS011;9454;53.516;10.478;2022-12-07T18:04:35;4.80;;;1.33;;
18649;SDS011;9454;53.516;10.478;2022-12-07T18:07:39;3.15;;;1.60;;
18649;SDS011;9454;53.516;10.478;2022-12-07T18:10:42;1.45;;;1.20;;
18649;SDS011;9454;53.516;10.478;2022-12-07T18:13:44;1.73;;;1.00;;
18649;SDS011;9454;53.516;10.478;2022-12-07T18:16:49;1.63;;;1.25;;
18649;SDS011;9454;53.516;10.478;2022-12-07T18:19:52;1.10;;;0.88;;
18649;SDS011;9454;53.516;10.478;2022-12-07T18:22:56;1.60;;;1.17;;
18649;SDS011;9454;53.516;10.478;2022-12-07T18:25:59;7.47;;;0.98;;
18649;SDS011;9454;53.516;10.478;2022-12-07T18:29:06;5.03;;;0.88;;
18649;SDS011;9454;53.516;10.478;2022-12-07T18:32:09;2.53;;;0.93;;
18649;SDS011;9454;53.516;10.478;2022-12-07T18:35:12;3.63;;;1.15;;
18649;SDS011;9454;53.516;10.478;2022-12-07T18:38:17;2.70;;;0.90;;
18649;SDS011;9454;53.516;10.478;2022-12-07T18:41:23;1.92;;;0.85;;
18649;SDS011;9454;53.516;10.478;2022-12-07T18:44:25;1.20;;;0.90;;
18649;SDS011;9454;53.516;10.478;2022-12-07T18:47:29;5.20;;;1.67;;
18649;SDS011;9454;53.516;10.478;2022-12-07T18:50:32;7.30;;;2.75;;
18649;SDS011;9454;53.516;10.478;2022-12-07T18:53:37;5.15;;;2.95;;
18649;SDS011;9454;53.516;10.478;2022-12-07T18:56:40;4.95;;;3.10;;
18649;SDS011;9454;53.516;10.478;2022-12-07T18:59:45;7.47;;;2.75;;
18649;SDS011;9454;53.516;10.478;2022-12-07T19:03:09;5.65;;;2.30;;
18649;SDS011;9454;53.516;10.478;2022-12-07T19:06:16;3.35;;;1.98;;